createdAt,value
2018-02-20T00:01:46.346Z,38.10
2018-02-20T00:04:13.836Z,39.73
2018-02-20T00:06:42.980Z,34.57
2018-02-20T00:09:10.452Z,33.37
2018-02-20T00:11:38.676Z,34.70
2018-02-20T00:14:07.075Z,35.22
2018-02-20T00:16:34.570Z,39.07
2018-02-20T00:19:02.161Z,37.07
2018-02-20T00:21:29.665Z,45.03
2018-02-20T00:24:00.901Z,35.30
2018-02-20T00:26:28.377Z,38.80
2018-02-20T00:28:56.863Z,40.35
2018-02-20T00:31:25.105Z,38.77
2018-02-20T00:33:52.557Z,36.17
2018-02-20T00:36:20.041Z,37.50
2018-02-20T00:38:51.787Z,38.85
2018-02-20T00:41:19.249Z,38.73
2018-02-20T00:43:46.721Z,45.63
2018-02-20T00:46:14.929Z,34.67
2018-02-20T00:48:42.443Z,40.90
2018-02-20T00:51:10.828Z,34.65
2018-02-20T00:53:38.441Z,39.42
2018-02-20T00:56:05.904Z,37.00
2018-02-20T00:58:33.851Z,40.20
2018-02-20T01:01:01.355Z,37.20
2018-02-20T01:03:28.829Z,36.70
2018-02-20T01:05:56.297Z,40.53
2018-02-20T01:08:24.703Z,37.90
2018-02-20T01:10:52.198Z,40.78
2018-02-20T01:13:19.649Z,44.87
2018-02-20T01:15:47.114Z,38.22
2018-02-20T01:18:14.573Z,39.88
2018-02-20T01:20:42.166Z,40.40
2018-02-20T01:23:09.609Z,46.27
2018-02-20T01:25:39.005Z,43.90
2018-02-20T01:28:06.483Z,41.37
2018-02-20T01:30:34.148Z,39.43
2018-02-20T01:33:01.800Z,32.80
2018-02-20T01:35:29.272Z,37.77
2018-02-20T01:37:58.416Z,35.33
2018-02-20T01:40:25.897Z,37.03
2018-02-20T01:42:53.379Z,46.70
2018-02-20T01:45:20.823Z,41.13
2018-02-20T01:47:48.268Z,41.70
2018-02-20T01:50:16.661Z,43.00
2018-02-20T01:52:44.324Z,41.00
2018-02-20T01:55:11.764Z,37.27
2018-02-20T01:57:40.753Z,38.30
2018-02-20T02:00:08.225Z,37.13
2018-02-20T02:02:36.240Z,38.08
2018-02-20T02:05:03.696Z,37.47
2018-02-20T02:07:31.176Z,41.00
2018-02-20T02:10:02.121Z,42.35
2018-02-20T02:12:29.614Z,40.20
2018-02-20T02:14:57.080Z,43.33
2018-02-20T02:17:24.592Z,36.90
2018-02-20T02:19:52.054Z,40.00
2018-02-20T02:22:20.508Z,43.10
2018-02-20T02:24:48.736Z,44.37
2018-02-20T02:27:16.193Z,45.00
2018-02-20T02:29:43.763Z,51.08
2018-02-20T02:32:12.010Z,44.28
2018-02-20T02:34:40.127Z,51.72
2018-02-20T02:37:07.770Z,51.75
2018-02-20T02:39:36.037Z,48.43
2018-02-20T02:42:05.231Z,46.00
2018-02-20T02:44:35.131Z,47.97
2018-02-20T02:47:02.609Z,49.63
2018-02-20T02:49:30.089Z,47.17
2018-02-20T02:51:57.793Z,41.53
2018-02-20T02:54:25.260Z,52.83
2018-02-20T02:56:53.641Z,43.15
2018-02-20T02:59:21.137Z,46.23
2018-02-20T03:01:49.348Z,53.73
2018-02-20T03:04:16.835Z,50.85
2018-02-20T03:06:44.289Z,51.30
2018-02-20T03:09:12.678Z,52.63
2018-02-20T03:11:40.165Z,51.10
2018-02-20T03:14:07.618Z,58.77
2018-02-20T03:16:35.095Z,55.03
2018-02-20T03:19:02.565Z,49.45
2018-02-20T03:21:30.102Z,60.80
2018-02-20T03:23:57.566Z,51.00
2018-02-20T03:26:25.194Z,51.13
2018-02-20T03:28:52.656Z,56.03
2018-02-20T03:31:21.967Z,51.92
2018-02-20T03:33:49.421Z,64.80
2018-02-20T03:36:16.875Z,55.27
2018-02-20T03:38:44.400Z,61.15
2018-02-20T03:41:12.100Z,52.13
2018-02-20T03:43:40.841Z,55.50
2018-02-20T03:46:08.307Z,64.23
2018-02-20T03:48:35.932Z,51.43
2018-02-20T03:51:03.472Z,56.40
2018-02-20T03:53:30.988Z,51.53
2018-02-20T03:55:58.432Z,49.50
2018-02-20T03:58:25.883Z,51.53
2018-02-20T04:00:54.832Z,53.10
2018-02-20T04:03:22.276Z,55.95
2018-02-20T04:05:50.551Z,51.30
2018-02-20T04:08:18.457Z,54.17
2018-02-20T04:10:45.938Z,59.00
2018-02-20T04:13:21.383Z,61.27
2018-02-20T04:15:50.231Z,59.70
2018-02-20T04:18:19.420Z,68.37
2018-02-20T04:20:46.879Z,51.87
2018-02-20T04:23:14.372Z,54.63
2018-02-20T04:25:41.944Z,57.67
2018-02-20T04:28:09.401Z,57.80
2018-02-20T04:30:36.998Z,62.73
2018-02-20T04:33:04.564Z,58.93
2018-02-20T04:35:33.123Z,56.55
2018-02-20T04:38:01.453Z,63.57
2018-02-20T04:40:28.931Z,53.57
2018-02-20T04:43:00.385Z,49.33
2018-02-20T04:45:27.863Z,57.63
2018-02-20T04:47:56.878Z,50.93
2018-02-20T04:50:24.339Z,58.80
2018-02-20T04:52:52.820Z,52.13
2018-02-20T04:55:21.070Z,57.47
2018-02-20T04:57:51.622Z,49.23
2018-02-20T05:00:19.121Z,56.75
2018-02-20T05:02:48.041Z,56.20
2018-02-20T05:05:15.549Z,53.67
2018-02-20T05:07:43.028Z,52.20
2018-02-20T05:10:10.507Z,56.63
2018-02-20T05:12:37.976Z,50.13
2018-02-20T05:15:05.430Z,62.07
2018-02-20T05:17:32.920Z,58.20
2018-02-20T05:20:01.473Z,56.63
2018-02-20T05:22:28.913Z,57.67
2018-02-20T05:24:56.397Z,57.37
2018-02-20T05:27:23.845Z,58.83
2018-02-20T05:29:51.463Z,51.23
2018-02-20T05:32:18.940Z,60.37
2018-02-20T05:34:46.884Z,59.10
2018-02-20T05:37:15.164Z,60.38
2018-02-20T05:39:42.652Z,62.13
2018-02-20T05:42:10.085Z,63.10
2018-02-20T05:44:37.660Z,60.38
2018-02-20T05:47:05.220Z,55.42
2018-02-20T05:49:34.956Z,54.55
2018-02-20T05:52:02.406Z,60.27
2018-02-20T05:54:29.869Z,60.23
2018-02-20T05:56:57.688Z,64.60
2018-02-20T05:59:29.064Z,54.90
2018-02-20T06:01:56.673Z,53.17
2018-02-20T06:04:25.203Z,55.13
2018-02-20T06:06:52.661Z,57.80
2018-02-20T06:09:20.105Z,59.80
2018-02-20T06:11:47.589Z,56.00
2018-02-20T06:14:18.103Z,58.67
2018-02-20T06:16:45.560Z,54.17
2018-02-20T06:19:13.254Z,51.60
2018-02-20T06:21:40.887Z,56.47
2018-02-20T06:24:08.351Z,56.30
2018-02-20T06:26:35.833Z,56.73
2018-02-20T06:29:04.048Z,53.23
2018-02-20T06:31:31.528Z,56.50
2018-02-20T06:33:59.050Z,55.23
2018-02-20T06:36:27.980Z,52.53
2018-02-20T06:38:55.436Z,55.20
2018-02-20T06:41:24.930Z,48.33
2018-02-20T06:43:54.330Z,49.37
2018-02-20T06:46:22.274Z,49.30
2018-02-20T06:48:49.878Z,49.65
2018-02-20T06:51:17.329Z,49.65
2018-02-20T06:53:44.840Z,52.95
2018-02-20T06:56:12.305Z,49.27
2018-02-20T06:58:39.810Z,51.30
2018-02-20T07:01:07.289Z,46.97
2018-02-20T07:03:35.686Z,46.88
2018-02-20T07:06:03.918Z,45.47
2018-02-20T07:08:31.548Z,47.43
2018-02-20T07:10:59.236Z,43.92
2018-02-20T07:13:26.696Z,58.13
2018-02-20T07:15:54.723Z,47.03
2018-02-20T07:18:22.190Z,43.63
2018-02-20T07:20:49.688Z,51.00
2018-02-20T07:23:17.172Z,45.77
2018-02-20T07:25:44.657Z,45.27
2018-02-20T07:28:12.203Z,45.22
2018-02-20T07:30:43.836Z,37.87
2018-02-20T07:33:11.289Z,40.10
2018-02-20T07:35:38.845Z,42.43
2018-02-20T07:38:06.288Z,46.08
2018-02-20T07:40:34.449Z,43.60
2018-02-20T07:43:01.913Z,51.47
2018-02-20T07:45:29.380Z,48.00
2018-02-20T07:47:56.840Z,46.15
2018-02-20T07:50:24.292Z,41.83
2018-02-20T07:52:53.236Z,48.38
2018-02-20T07:55:20.709Z,43.00
2018-02-20T07:57:48.196Z,46.37
2018-02-20T08:00:15.675Z,50.13
2018-02-20T08:02:43.169Z,49.50
2018-02-20T08:05:10.624Z,44.78
2018-02-20T08:07:38.092Z,37.20
2018-02-20T08:10:07.021Z,44.28
2018-02-20T08:12:34.498Z,49.10
2018-02-20T08:15:01.985Z,43.67
2018-02-20T08:17:29.491Z,41.17
2018-02-20T08:19:57.203Z,38.37
2018-02-20T08:22:24.840Z,40.17
2018-02-20T08:24:52.327Z,40.60
2018-02-20T08:27:21.068Z,44.53
2018-02-20T08:29:48.532Z,48.42
2018-02-20T08:32:16.008Z,40.25
2018-02-20T08:34:43.461Z,52.10
2018-02-20T08:37:11.818Z,37.90
2018-02-20T08:39:40.635Z,42.47
2018-02-20T08:42:09.786Z,41.40
2018-02-20T08:44:37.253Z,46.13
2018-02-20T08:47:04.701Z,50.30
2018-02-20T08:49:32.201Z,49.85
2018-02-20T08:51:59.701Z,39.50
2018-02-20T08:54:27.201Z,40.13
2018-02-20T08:56:54.689Z,41.03
2018-02-20T08:59:22.172Z,55.93
2018-02-20T09:01:52.520Z,45.27
2018-02-20T09:04:19.981Z,45.40
2018-02-20T09:06:48.376Z,44.83
2018-02-20T09:09:15.818Z,45.53
2018-02-20T09:11:43.276Z,42.23
2018-02-20T09:14:10.756Z,38.42
2018-02-20T09:16:38.203Z,54.33
2018-02-20T09:19:05.708Z,54.07
2018-02-20T09:21:33.168Z,51.40
2018-02-20T09:24:00.674Z,55.50
2018-02-20T09:26:28.122Z,52.72
2018-02-20T09:28:57.340Z,45.88
2018-02-20T09:31:25.429Z,43.43
2018-02-20T09:33:52.870Z,58.15
2018-02-20T09:36:20.921Z,48.50
2018-02-20T09:38:48.372Z,52.45
2018-02-20T09:41:15.848Z,41.60
2018-02-20T09:43:43.286Z,40.83
2018-02-20T09:46:10.793Z,41.80
2018-02-20T09:48:38.531Z,41.75
2018-02-20T09:51:06.319Z,40.08
2018-02-20T09:53:33.792Z,46.22
2018-02-20T09:56:01.265Z,43.63
2018-02-20T09:58:30.496Z,67.28
2018-02-20T10:00:58.120Z,41.07
2018-02-20T10:03:28.783Z,44.63
2018-02-20T10:05:59.295Z,41.10
2018-02-20T10:08:26.822Z,40.80
2018-02-20T10:10:55.183Z,47.47
2018-02-20T10:13:22.601Z,40.23
2018-02-20T10:15:50.046Z,44.20
2018-02-20T10:18:22.145Z,53.77
2018-02-20T10:20:49.630Z,48.50
2018-02-20T10:23:17.342Z,56.95
2018-02-20T10:25:44.756Z,52.62
2018-02-20T10:28:12.421Z,46.93
2018-02-20T10:30:40.033Z,48.90
2018-02-20T10:33:12.099Z,47.43
2018-02-20T10:35:39.560Z,44.13
2018-02-20T10:38:07.020Z,42.10
2018-02-20T10:40:34.467Z,45.07
2018-02-20T10:43:01.931Z,47.55
2018-02-20T10:45:29.379Z,45.80
2018-02-20T10:47:56.835Z,44.30
2018-02-20T10:50:24.289Z,43.58
2018-02-20T10:52:51.820Z,66.05
2018-02-20T10:55:19.367Z,41.93
2018-02-20T10:57:47.481Z,68.18
2018-02-20T11:00:15.002Z,43.93
2018-02-20T11:02:42.457Z,34.33
2018-02-20T11:05:09.940Z,42.20
2018-02-20T11:07:37.408Z,51.73
2018-02-20T11:10:04.892Z,40.30
2018-02-20T11:12:32.328Z,49.67
2018-02-20T11:15:00.705Z,37.30
2018-02-20T11:17:28.172Z,39.17
2018-02-20T11:19:55.639Z,42.10
2018-02-20T11:22:23.097Z,59.10
2018-02-20T11:24:50.538Z,52.85
2018-02-20T11:27:18.199Z,37.33
2018-02-20T11:29:45.768Z,39.83
2018-02-20T11:32:13.216Z,39.63
2018-02-20T11:34:51.186Z,41.42
2018-02-20T11:37:18.780Z,44.20
2018-02-20T11:39:46.294Z,43.03
2018-02-20T11:42:13.756Z,42.83
2018-02-20T11:44:41.211Z,42.90
2018-02-20T11:47:08.692Z,35.33
2018-02-20T11:49:36.420Z,43.50
2018-02-20T11:52:04.563Z,40.05
2018-02-20T11:54:32.046Z,40.60
2018-02-20T11:56:59.532Z,39.53
2018-02-20T11:59:26.994Z,42.50
2018-02-20T12:01:54.560Z,42.27
2018-02-20T12:04:22.084Z,36.30
2018-02-20T12:06:49.519Z,42.20
2018-02-20T12:09:18.836Z,42.10
2018-02-20T12:11:46.311Z,37.63
2018-02-20T12:14:13.792Z,38.97
2018-02-20T12:16:41.425Z,41.27
2018-02-20T12:19:08.904Z,48.00
2018-02-20T12:21:37.052Z,41.30
2018-02-20T12:24:04.505Z,49.13
2018-02-20T12:26:32.004Z,45.87
2018-02-20T12:28:59.478Z,38.43
2018-02-20T12:31:26.985Z,37.83
2018-02-20T12:33:54.440Z,45.03
2018-02-20T12:36:25.824Z,38.17
2018-02-20T12:38:53.293Z,45.77
2018-02-20T12:41:21.081Z,38.28
2018-02-20T12:43:48.619Z,44.40
2018-02-20T12:46:16.072Z,38.90
2018-02-20T12:48:43.543Z,44.53
2018-02-20T12:51:11.771Z,50.45
2018-02-20T12:53:39.329Z,42.47
2018-02-20T12:56:06.724Z,43.75
2018-02-20T12:58:35.076Z,43.90
2018-02-20T13:01:02.528Z,50.77
2018-02-20T13:03:30.039Z,38.63
2018-02-20T13:05:57.476Z,47.10
2018-02-20T13:08:24.920Z,39.65
2018-02-20T13:10:52.592Z,38.23
2018-02-20T13:13:20.170Z,45.87
2018-02-20T13:15:48.575Z,47.40
2018-02-20T13:18:16.037Z,35.70
2018-02-20T13:20:43.737Z,48.83
2018-02-20T13:23:11.221Z,47.97
2018-02-20T13:25:38.689Z,47.43
2018-02-20T13:28:06.184Z,40.17
2018-02-20T13:30:33.902Z,31.50
2018-02-20T13:33:01.360Z,39.63
2018-02-20T13:35:28.811Z,51.00
2018-02-20T13:37:57.998Z,44.00
2018-02-20T13:40:25.469Z,42.17
2018-02-20T13:42:52.913Z,46.43
2018-02-20T13:45:20.468Z,45.37
2018-02-20T13:47:49.429Z,42.22
2018-02-20T13:50:16.923Z,26.10
2018-02-20T13:52:44.597Z,41.90
2018-02-20T13:55:12.854Z,46.40
2018-02-20T13:57:41.084Z,43.08
2018-02-20T14:00:08.537Z,37.23
2018-02-20T14:02:36.021Z,39.67
2018-02-20T14:05:03.477Z,33.55
2018-02-20T14:07:30.976Z,31.57
2018-02-20T14:09:58.510Z,37.40
2018-02-20T14:12:26.510Z,42.33
2018-02-20T14:14:54.559Z,35.15
2018-02-20T14:17:22.307Z,44.10
2018-02-20T14:19:49.808Z,46.70
2018-02-20T14:22:17.515Z,42.80
2018-02-20T14:24:45.002Z,39.83
2018-02-20T14:27:14.914Z,41.87
2018-02-20T14:29:42.401Z,50.47
2018-02-20T14:32:09.980Z,33.95
2018-02-20T14:34:38.368Z,37.78
2018-02-20T14:37:05.817Z,38.55
2018-02-20T14:39:36.502Z,35.00
2018-02-20T14:42:04.016Z,46.03
2018-02-20T14:44:31.469Z,43.22
2018-02-20T14:46:58.949Z,44.73
2018-02-20T14:49:26.419Z,30.87
2018-02-20T14:51:53.904Z,37.70
2018-02-20T14:54:23.052Z,41.97
2018-02-20T14:56:50.512Z,40.60
2018-02-20T14:59:17.988Z,47.55
2018-02-20T15:01:45.478Z,35.03
2018-02-20T15:04:12.977Z,41.87
2018-02-20T15:06:40.441Z,35.13
2018-02-20T15:09:12.420Z,36.47
2018-02-20T15:11:39.876Z,40.65
2018-02-20T15:14:07.329Z,26.23
2018-02-20T15:16:34.799Z,22.03
2018-02-20T15:19:02.264Z,29.73
2018-02-20T15:21:29.997Z,39.95
2018-02-20T15:24:01.355Z,26.53
2018-02-20T15:26:28.975Z,29.80
2018-02-20T15:28:56.617Z,36.43
2018-02-20T15:31:24.065Z,30.52
2018-02-20T15:33:52.325Z,31.02
2018-02-20T15:36:19.799Z,30.50
2018-02-20T15:38:51.132Z,29.08
2018-02-20T15:41:18.607Z,32.20
2018-02-20T15:43:46.132Z,29.50
2018-02-20T15:46:13.601Z,21.00
2018-02-20T15:48:41.173Z,35.53
2018-02-20T15:51:10.361Z,41.93
2018-02-20T15:53:37.818Z,28.40
2018-02-20T15:56:05.329Z,25.73
2018-02-20T15:58:32.761Z,35.57
2018-02-20T16:01:01.041Z,20.65
2018-02-20T16:03:28.526Z,34.70
2018-02-20T16:05:56.125Z,34.13
2018-02-20T16:08:24.365Z,31.30
2018-02-20T16:10:55.429Z,35.93
2018-02-20T16:13:22.912Z,37.55
2018-02-20T16:18:49.761Z,27.15
2018-02-20T16:21:17.208Z,21.67
2018-02-20T16:23:45.456Z,33.67
2018-02-20T16:26:17.987Z,33.30
2018-02-20T16:28:45.461Z,23.63
2018-02-20T16:31:12.960Z,35.07
2018-02-20T16:33:40.505Z,44.50
2018-02-20T16:36:07.936Z,35.13
2018-02-20T16:38:35.387Z,31.80
2018-02-20T16:41:06.692Z,32.50
2018-02-20T16:43:34.207Z,38.47
2018-02-20T16:46:01.732Z,34.67
2018-02-20T16:48:29.983Z,38.40
2018-02-20T16:50:58.376Z,38.10
2018-02-20T16:53:25.850Z,39.38
2018-02-20T16:55:53.603Z,18.50
2018-02-20T16:58:21.071Z,43.33
2018-02-20T17:00:48.576Z,22.73
2018-02-20T17:03:16.016Z,31.83
2018-02-20T17:05:43.543Z,40.37
2018-02-20T17:08:10.985Z,38.40
2018-02-20T17:10:38.734Z,38.83
2018-02-20T17:13:07.624Z,44.00
2018-02-20T17:15:35.144Z,39.90
2018-02-20T17:18:02.575Z,42.90
2018-02-20T17:20:31.737Z,36.90
2018-02-20T17:22:59.188Z,35.30
2018-02-20T17:25:30.006Z,39.15
2018-02-20T17:31:28.014Z,42.13
2018-02-20T17:33:55.486Z,38.47
2018-02-20T17:36:22.940Z,45.20
2018-02-20T17:38:50.438Z,47.28
2018-02-20T17:41:17.914Z,43.40
2018-02-20T17:43:45.960Z,43.40
2018-02-20T17:46:13.458Z,40.80
2018-02-20T17:48:40.917Z,44.83
2018-02-20T17:51:08.386Z,56.80
2018-02-20T17:53:36.048Z,41.87
2018-02-20T17:56:06.901Z,47.00
2018-02-20T17:58:36.975Z,49.10
2018-02-20T18:01:05.394Z,47.60
2018-02-20T18:03:32.868Z,50.30
2018-02-20T18:06:00.371Z,48.73
2018-02-20T18:08:27.845Z,39.23
2018-02-20T18:10:59.309Z,40.63
2018-02-20T18:13:26.793Z,44.13
2018-02-20T18:15:54.995Z,47.72
2018-02-20T18:18:22.520Z,41.17
2018-02-20T18:20:50.021Z,54.27
2018-02-20T18:23:17.513Z,37.47
2018-02-20T18:25:44.996Z,43.17
2018-02-20T18:28:12.439Z,45.08
2018-02-20T18:30:39.926Z,47.00
2018-02-20T18:33:07.380Z,44.53
2018-02-20T18:35:34.886Z,46.70
2018-02-20T18:38:02.401Z,29.33
2018-02-20T18:40:30.629Z,43.33
2018-02-20T18:42:58.119Z,46.67
2018-02-20T18:45:25.576Z,42.77
2018-02-20T18:47:53.047Z,53.83
2018-02-20T18:50:20.788Z,46.35
2018-02-20T18:52:48.242Z,45.10
2018-02-20T18:55:18.145Z,53.20
2018-02-20T18:57:45.902Z,47.90
2018-02-20T19:00:13.488Z,46.92
2018-02-20T19:02:40.959Z,43.92
2018-02-20T19:05:08.464Z,32.08
2018-02-20T19:07:36.540Z,45.77
2018-02-20T19:10:04.053Z,41.97
2018-02-20T19:12:32.275Z,44.35
2018-02-20T19:14:59.788Z,39.33
2018-02-20T19:17:28.369Z,48.30
2018-02-20T19:19:55.831Z,50.67
2018-02-20T19:22:23.287Z,44.47
2018-02-20T19:24:50.789Z,47.85
2018-02-20T19:27:18.259Z,43.67
2018-02-20T19:29:45.725Z,48.97
2018-02-20T19:32:13.200Z,43.50
2018-02-20T19:34:41.572Z,43.70
2018-02-20T19:37:09.445Z,51.77
2018-02-20T19:39:37.094Z,49.65
2018-02-20T19:42:04.596Z,48.23
2018-02-20T19:44:32.140Z,44.33
2018-02-20T19:46:59.589Z,54.65
2018-02-20T19:49:27.050Z,48.53
2018-02-20T19:51:54.492Z,49.10
2018-02-20T19:54:22.709Z,46.25
2018-02-20T19:56:50.198Z,51.30
2018-02-20T19:59:17.689Z,56.20
2018-02-20T20:01:45.217Z,48.97
2018-02-20T20:04:12.676Z,43.00
2018-02-20T20:06:40.160Z,51.40
2018-02-20T20:09:08.429Z,54.17
2018-02-20T20:11:36.993Z,49.05
2018-02-20T20:14:04.464Z,55.63
2018-02-20T20:16:32.134Z,49.90
2018-02-20T20:19:00.566Z,53.87
2018-02-20T20:21:28.018Z,54.40
2018-02-20T20:23:55.874Z,42.22
2018-02-20T20:26:23.313Z,46.80
2018-02-20T20:28:58.605Z,54.67
2018-02-20T20:31:26.480Z,45.45
2018-02-20T20:33:53.937Z,44.13
2018-02-20T20:36:21.428Z,43.87
2018-02-20T20:38:49.668Z,49.30
2018-02-20T20:41:17.469Z,46.70
2018-02-20T20:43:46.617Z,46.83
2018-02-20T20:46:14.077Z,55.17
2018-02-20T20:48:41.561Z,48.90
2018-02-20T20:51:09.031Z,53.27
2018-02-20T20:53:37.267Z,54.53
2018-02-20T20:56:04.753Z,53.08
2018-02-20T20:58:35.918Z,43.33
2018-02-20T21:01:03.418Z,59.37
2018-02-20T21:03:30.865Z,53.70
2018-02-20T21:05:58.305Z,49.40
2018-02-20T21:08:26.000Z,53.77
2018-02-20T21:10:54.198Z,46.43
2018-02-20T21:13:21.680Z,59.53
2018-02-20T21:15:50.469Z,52.47
2018-02-20T21:18:17.948Z,54.30
2018-02-20T21:20:45.392Z,54.30
2018-02-20T21:23:14.630Z,59.33
2018-02-20T21:25:42.092Z,58.20
2018-02-20T21:28:09.575Z,58.17
2018-02-20T21:30:38.722Z,57.42
2018-02-20T21:33:06.234Z,49.75
2018-02-20T21:35:34.455Z,53.37
2018-02-20T21:38:01.973Z,56.05
2018-02-20T21:40:29.499Z,70.93
2018-02-20T21:42:56.952Z,60.12
2018-02-20T21:45:28.001Z,72.67
2018-02-20T21:47:55.477Z,58.78
2018-02-20T21:50:24.440Z,65.23
2018-02-20T21:52:53.746Z,55.38
2018-02-20T21:55:21.200Z,56.22
2018-02-20T21:57:48.665Z,49.63
2018-02-20T22:00:20.416Z,58.07
2018-02-20T22:02:48.114Z,53.78
2018-02-20T22:05:15.585Z,57.67
2018-02-20T22:07:43.102Z,53.00
2018-02-20T22:10:11.743Z,58.25
2018-02-20T22:12:39.231Z,67.23
2018-02-20T22:15:11.014Z,54.88
2018-02-20T22:17:42.446Z,53.57
2018-02-20T22:20:09.933Z,52.67
2018-02-20T22:22:38.872Z,60.28
2018-02-20T22:25:06.329Z,55.60
2018-02-20T22:27:33.829Z,56.87
2018-02-20T22:30:04.753Z,51.07
2018-02-20T22:32:32.692Z,64.60
2018-02-20T22:35:00.146Z,58.70
2018-02-20T22:37:27.638Z,54.57
2018-02-20T22:39:55.118Z,56.63
2018-02-20T22:42:22.587Z,55.33
2018-02-20T22:44:50.232Z,60.45
2018-02-20T22:47:17.718Z,63.20
2018-02-20T22:49:45.161Z,56.70
2018-02-20T22:52:12.631Z,58.97
2018-02-20T22:54:41.053Z,61.45
2018-02-20T22:57:08.535Z,56.10
2018-02-20T22:59:35.976Z,68.33
2018-02-20T23:02:03.453Z,63.05
2018-02-20T23:04:30.909Z,57.77
2018-02-20T23:06:58.670Z,63.20
2018-02-20T23:09:26.197Z,60.33
2018-02-20T23:11:53.766Z,61.02
2018-02-20T23:14:21.244Z,59.47
2018-02-20T23:16:49.156Z,72.25
2018-02-20T23:19:16.656Z,64.70
2018-02-20T23:21:44.106Z,60.50
2018-02-20T23:24:11.567Z,64.97
2018-02-20T23:26:39.048Z,61.03
2018-02-20T23:29:06.524Z,62.33
2018-02-20T23:31:39.065Z,60.03
2018-02-20T23:34:06.522Z,61.33
2018-02-20T23:36:33.989Z,60.63
2018-02-20T23:39:01.469Z,61.95
2018-02-20T23:41:29.688Z,66.23
2018-02-20T23:43:58.101Z,66.47
2018-02-20T23:46:29.954Z,57.33
2018-02-20T23:48:57.481Z,62.55
2018-02-20T23:51:30.643Z,65.40
2018-02-20T23:53:59.046Z,62.70
2018-02-20T23:56:26.509Z,67.63
2018-02-20T23:58:53.972Z,63.33
